Time;durP1;ratioP1;P1;durP2;ratioP2;P2;SDS_P1;SDS_P2;PMS_P1;PMS_P2;Temp;Humidity;BMP_temperature;BMP_pressure;BME280_temperature;BME280_humidity;BME280_pressure;Samples;Min_cycle;Max_cycle;Signal;HPM_P1;HPM_P2
2021/09/21 00:01:31;;;;;;;4.32;3.30;;;9.80;99.90;;;;;;4980813;28;20484;-66
2021/09/21 00:03:57;;;;;;;3.80;3.40;;;9.80;99.90;;;;;;4981246;28;20041;-66
2021/09/21 00:06:22;;;;;;;4.22;3.10;;;9.80;99.90;;;;;;4980517;28;20380;-66
2021/09/21 00:08:48;;;;;;;5.22;3.53;;;9.90;99.90;;;;;;4979673;28;20038;-66
2021/09/21 00:11:14;;;;;;;6.05;4.07;;;9.90;99.90;;;;;;4980480;28;20034;-66
2021/09/21 00:13:40;;;;;;;6.88;3.55;;;9.90;99.90;;;;;;4982887;28;20111;-66
2021/09/21 00:16:06;;;;;;;4.70;4.10;;;9.90;99.90;;;;;;4979998;28;20411;-66
2021/09/21 00:18:32;;;;;;;7.07;3.90;;;9.90;99.90;;;;;;4981439;28;20133;-67
2021/09/21 00:20:57;;;;;;;7.18;4.15;;;10.00;99.90;;;;;;4980711;28;20508;-67
2021/09/21 00:23:23;;;;;;;6.95;3.92;;;10.10;99.90;;;;;;4980622;28;20046;-66
2021/09/21 00:25:48;;;;;;;6.78;3.70;;;10.10;99.90;;;;;;4978051;28;20555;-66
2021/09/21 00:28:14;;;;;;;9.27;4.50;;;10.10;99.90;;;;;;4980771;28;20074;-66
2021/09/21 00:30:51;;;;;;;4.75;4.13;;;10.20;99.90;;;;;;4980802;28;20042;-66
2021/09/21 00:33:21;;;;;;;4.75;4.10;;;10.20;99.90;;;;;;4981010;28;20042;-66
2021/09/21 00:35:48;;;;;;;4.25;3.72;;;10.30;99.90;;;;;;4979953;28;20042;-66
2021/09/21 00:38:17;;;;;;;5.05;4.00;;;10.20;99.90;;;;;;4980127;28;20080;-66
2021/09/21 00:40:43;;;;;;;4.57;4.18;;;10.30;99.90;;;;;;4981850;28;20050;-66
2021/09/21 00:43:09;;;;;;;4.32;3.92;;;10.30;99.90;;;;;;4979362;28;20481;-66
2021/09/21 00:45:35;;;;;;;5.38;3.38;;;10.30;99.90;;;;;;4978084;28;20057;-66
2021/09/21 00:48:01;;;;;;;4.07;3.67;;;10.30;99.90;;;;;;4979334;28;20128;-66
2021/09/21 00:50:28;;;;;;;5.55;3.75;;;10.40;99.90;;;;;;4980056;28;20038;-66
2021/09/21 00:52:55;;;;;;;5.57;4.00;;;10.40;99.90;;;;;;4992441;28;20088;-66
2021/09/21 00:55:21;;;;;;;5.30;4.50;;;10.50;99.90;;;;;;4980711;28;20046;-66
2021/09/21 00:57:47;;;;;;;4.45;4.05;;;10.50;99.90;;;;;;4979803;28;20035;-66
2021/09/21 01:00:15;;;;;;;8.35;4.15;;;10.50;99.90;;;;;;4979825;28;20073;-66
2021/09/21 01:02:42;;;;;;;4.47;4.07;;;10.50;99.90;;;;;;4977347;28;20038;-66
2021/09/21 01:05:08;;;;;;;4.50;4.10;;;10.60;99.90;;;;;;4981136;28;20046;-66
2021/09/21 01:07:39;;;;;;;4.50;4.13;;;10.60;99.90;;;;;;4962848;28;20054;-66
2021/09/21 01:10:08;;;;;;;6.03;5.03;;;10.70;99.90;;;;;;4979092;28;20057;-66
2021/09/21 01:12:34;;;;;;;6.00;4.22;;;10.60;99.90;;;;;;4980522;28;20164;-66
2021/09/21 01:15:00;;;;;;;4.78;4.32;;;10.60;99.90;;;;;;4979308;28;20050;-66
2021/09/21 01:17:26;;;;;;;8.20;4.47;;;10.70;99.90;;;;;;4984179;28;20368;-66
2021/09/21 01:19:52;;;;;;;7.70;4.47;;;10.60;99.90;;;;;;4986563;28;20041;-66
2021/09/21 01:22:19;;;;;;;5.03;3.90;;;10.60;99.90;;;;;;4983367;28;20057;-66
2021/09/21 01:24:46;;;;;;;5.95;4.80;;;10.60;99.90;;;;;;4984533;28;20069;-66
2021/09/21 01:27:13;;;;;;;9.85;5.45;;;10.60;99.90;;;;;;4981857;28;20042;-66
2021/09/21 01:29:38;;;;;;;6.47;4.40;;;10.60;99.90;;;;;;4984674;28;20054;-66
2021/09/21 01:32:04;;;;;;;5.20;4.75;;;10.60;99.90;;;;;;4982574;28;20046;-66
2021/09/21 01:34:33;;;;;;;7.20;4.68;;;10.60;99.90;;;;;;4982831;28;20046;-66
2021/09/21 01:37:00;;;;;;;7.35;5.35;;;10.60;99.90;;;;;;4979133;28;20066;-66
2021/09/21 01:39:26;;;;;;;5.70;4.43;;;10.70;99.90;;;;;;4963467;28;20038;-66
2021/09/21 01:41:52;;;;;;;7.90;6.65;;;10.60;99.90;;;;;;4985870;28;20030;-66
2021/09/21 01:44:18;;;;;;;6.05;4.60;;;10.70;99.90;;;;;;4982534;28;20042;-66
2021/09/21 01:46:51;;;;;;;6.95;4.25;;;10.70;99.90;;;;;;4982296;28;20049;-66
2021/09/21 01:49:17;;;;;;;4.47;4.13;;;10.70;99.90;;;;;;4985513;28;20034;-66
2021/09/21 01:51:57;;;;;;;4.68;4.28;;;10.70;99.90;;;;;;4965337;28;20054;-66
2021/09/21 01:54:49;;;;;;;6.78;5.38;;;10.70;99.90;;;;;;4986022;28;20047;-66
2021/09/21 02:00:20;;;;;;;6.70;4.50;;;10.70;99.90;;;;;;4982049;28;20038;-66
2021/09/21 02:02:45;;;;;;;5.47;4.97;;;10.80;99.90;;;;;;4982841;28;20477;-66
2021/09/21 02:05:11;;;;;;;5.63;5.10;;;10.80;99.90;;;;;;4983294;28;20165;-66
2021/09/21 02:07:37;;;;;;;5.35;4.93;;;10.90;99.90;;;;;;4984201;28;20038;-66
2021/09/21 02:10:03;;;;;;;5.82;5.18;;;10.90;99.90;;;;;;4981259;28;20412;-66
2021/09/21 02:12:29;;;;;;;7.60;5.40;;;10.90;99.90;;;;;;4984659;28;20089;-66
2021/09/21 02:14:58;;;;;;;6.88;5.20;;;10.90;99.90;;;;;;4981729;28;20092;-66
2021/09/21 02:17:24;;;;;;;5.88;5.38;;;10.90;99.90;;;;;;4983052;28;20088;-66
2021/09/21 02:19:49;;;;;;;5.45;4.95;;;10.90;99.90;;;;;;4984101;28;20034;-66
2021/09/21 02:22:15;;;;;;;6.88;6.28;;;11.00;99.90;;;;;;4982635;28;20125;-66
2021/09/21 02:24:41;;;;;;;7.63;5.32;;;10.90;99.90;;;;;;4981126;28;20034;-66
2021/09/21 02:27:06;;;;;;;6.93;5.35;;;10.90;99.90;;;;;;4980925;28;20128;-66
2021/09/21 02:29:32;;;;;;;7.68;5.10;;;10.90;99.90;;;;;;4987886;28;20416;-66
2021/09/21 02:31:59;;;;;;;7.63;5.43;;;10.90;99.90;;;;;;4984038;28;20042;-66
2021/09/21 02:34:24;;;;;;;5.28;4.78;;;11.00;99.90;;;;;;4988492;28;20489;-66
2021/09/21 02:36:50;;;;;;;5.70;5.20;;;10.90;99.90;;;;;;4986213;28;20041;-66
2021/09/21 02:39:15;;;;;;;6.15;5.22;;;10.90;99.90;;;;;;4987735;28;20034;-66
2021/09/21 02:41:41;;;;;;;6.13;5.47;;;10.90;99.90;;;;;;4989034;28;20485;-66
2021/09/21 02:44:07;;;;;;;5.97;5.38;;;10.90;99.90;;;;;;4987799;28;20034;-66
2021/09/21 02:46:32;;;;;;;7.32;5.57;;;10.90;99.90;;;;;;4988618;28;20387;-66
2021/09/21 02:48:58;;;;;;;6.78;6.03;;;10.90;99.90;;;;;;4988787;28;20034;-66
2021/09/21 02:51:24;;;;;;;6.47;5.78;;;10.80;99.90;;;;;;4982761;28;20429;-66
2021/09/21 02:53:49;;;;;;;7.28;6.00;;;10.80;99.90;;;;;;4984914;28;20045;-66
2021/09/21 02:56:15;;;;;;;7.32;6.55;;;10.80;99.90;;;;;;4986286;28;20054;-66
2021/09/21 02:58:43;;;;;;;7.90;5.78;;;10.80;99.90;;;;;;4984786;28;20053;-66
2021/09/21 03:01:10;;;;;;;6.22;5.72;;;10.80;99.90;;;;;;4987147;28;20476;-66
2021/09/21 03:03:44;;;;;;;8.15;5.05;;;10.80;99.90;;;;;;4985043;28;20050;-66
2021/09/21 03:06:19;;;;;;;8.07;5.78;;;10.80;99.90;;;;;;4983847;28;20061;-66
2021/09/21 03:08:45;;;;;;;6.70;6.05;;;10.80;99.90;;;;;;4986379;28;20046;-66
2021/09/21 03:18:52;;;;;;;5.95;5.32;;;10.80;99.90;;;;;;4981128;28;20038;-66
2021/09/21 03:21:18;;;;;;;7.47;5.68;;;10.90;99.90;;;;;;4987155;28;20428;-66
2021/09/21 03:23:43;;;;;;;7.55;5.43;;;10.80;99.90;;;;;;4986957;28;20034;-66
2021/09/21 03:26:09;;;;;;;6.75;4.85;;;10.80;99.90;;;;;;4985392;28;20508;-66
2021/09/21 03:28:35;;;;;;;5.50;5.00;;;10.80;99.90;;;;;;4988612;28;20100;-66
2021/09/21 03:31:01;;;;;;;5.47;4.97;;;10.90;99.90;;;;;;4985951;28;20042;-66
2021/09/21 03:33:27;;;;;;;5.32;4.63;;;10.90;99.90;;;;;;4987734;28;20050;-66
2021/09/21 03:35:52;;;;;;;5.30;4.78;;;10.90;99.90;;;;;;4985260;28;20034;-66
2021/09/21 03:38:18;;;;;;;9.70;5.78;;;10.90;99.90;;;;;;4984553;28;20125;-66
2021/09/21 03:40:44;;;;;;;5.55;4.97;;;10.90;99.90;;;;;;4984452;28;20038;-66
2021/09/21 03:43:10;;;;;;;8.50;5.65;;;11.00;99.90;;;;;;4985012;28;20050;-66
2021/09/21 03:45:36;;;;;;;6.38;5.72;;;10.90;99.90;;;;;;4985943;28;20619;-66
2021/09/21 03:48:02;;;;;;;6.55;5.57;;;10.90;99.90;;;;;;4986306;28;20125;-66
2021/09/21 03:50:28;;;;;;;8.05;5.20;;;10.90;99.90;;;;;;4983889;28;20703;-66
2021/09/21 03:52:53;;;;;;;6.82;6.13;;;10.90;99.90;;;;;;4986728;28;20050;-66
2021/09/21 03:55:20;;;;;;;7.72;6.05;;;10.90;99.90;;;;;;4988502;28;20053;-66
2021/09/21 03:57:46;;;;;;;6.05;5.28;;;10.90;99.90;;;;;;4983244;28;20034;-66
2021/09/21 04:00:12;;;;;;;5.72;5.18;;;10.90;99.90;;;;;;4984131;28;20097;-66
2021/09/21 04:02:38;;;;;;;7.55;5.65;;;10.90;99.90;;;;;;4987865;28;20050;-66
2021/09/21 04:05:05;;;;;;;6.22;4.85;;;10.90;99.90;;;;;;4985545;28;20038;-66
2021/09/21 04:07:30;;;;;;;6.13;5.32;;;10.90;99.90;;;;;;4986080;28;20046;-66
2021/09/21 04:09:56;;;;;;;5.97;5.38;;;11.00;99.90;;;;;;4987029;28;20043;-66
2021/09/21 04:12:21;;;;;;;5.50;5.00;;;11.00;99.90;;;;;;4984535;28;20054;-66
2021/09/21 04:14:47;;;;;;;5.97;5.38;;;11.00;99.90;;;;;;4985435;28;20038;-66
2021/09/21 04:17:13;;;;;;;7.88;5.60;;;11.00;99.90;;;;;;4986778;28;20129;-66
2021/09/21 04:19:38;;;;;;;6.05;4.63;;;11.00;99.90;;;;;;4987264;28;20045;-66
2021/09/21 04:22:06;;;;;;;5.88;4.88;;;11.00;99.90;;;;;;4985279;28;20583;-66
2021/09/21 04:24:33;;;;;;;6.03;5.40;;;11.00;99.90;;;;;;4986143;28;20057;-66
2021/09/21 04:26:59;;;;;;;5.75;5.35;;;11.00;99.90;;;;;;4987143;28;20046;-66
2021/09/21 04:29:24;;;;;;;5.70;4.93;;;10.90;99.90;;;;;;4986802;28;20054;-66
2021/09/21 04:31:52;;;;;;;6.43;5.75;;;11.00;99.90;;;;;;4986970;28;21719;-66
2021/09/21 04:34:18;;;;;;;5.13;4.63;;;10.90;99.90;;;;;;4985168;28;20054;-66
2021/09/21 04:36:43;;;;;;;5.90;5.30;;;11.00;99.90;;;;;;4986711;28;20046;-66
2021/09/21 04:39:09;;;;;;;8.48;5.55;;;11.00;99.90;;;;;;4986635;28;20096;-66
2021/09/21 04:41:35;;;;;;;8.93;4.80;;;10.90;99.90;;;;;;4986377;28;20046;-66
2021/09/21 04:44:01;;;;;;;8.65;5.32;;;10.90;99.90;;;;;;4983929;28;20031;-66
2021/09/21 04:46:26;;;;;;;6.10;5.25;;;10.90;99.90;;;;;;4985882;28;20093;-66
2021/09/21 04:48:52;;;;;;;8.13;5.30;;;10.90;99.90;;;;;;4983827;28;20074;-66
2021/09/21 04:51:18;;;;;;;5.57;5.03;;;10.90;99.90;;;;;;4989690;28;20049;-66
2021/09/21 04:53:44;;;;;;;5.30;4.80;;;10.90;99.90;;;;;;4991052;28;20030;-66
2021/09/21 04:56:10;;;;;;;6.95;5.28;;;10.90;99.90;;;;;;4991394;28;20042;-66
2021/09/21 04:58:35;;;;;;;7.32;5.38;;;10.90;99.90;;;;;;4990772;28;20156;-66
2021/09/21 05:01:01;;;;;;;5.70;5.22;;;10.90;99.90;;;;;;4987244;28;20050;-66
2021/09/21 05:03:26;;;;;;;7.45;5.00;;;11.00;99.90;;;;;;4990798;28;20396;-66
2021/09/21 05:05:52;;;;;;;5.22;4.72;;;10.90;99.90;;;;;;4989970;28;20093;-66
2021/09/21 05:08:18;;;;;;;8.05;5.47;;;10.60;99.90;;;;;;4989427;28;20048;-66
2021/09/21 05:10:43;;;;;;;6.35;5.32;;;10.90;99.90;;;;;;4989532;28;20138;-66
2021/09/21 05:13:10;;;;;;;11.85;5.82;;;10.90;99.90;;;;;;4989231;28;20042;-66
2021/09/21 05:15:35;;;;;;;8.32;5.40;;;10.80;99.90;;;;;;4989273;28;20057;-66
2021/09/21 05:18:01;;;;;;;5.82;4.65;;;10.80;99.90;;;;;;4987923;28;20031;-66
2021/09/21 05:20:27;;;;;;;8.70;5.40;;;10.90;99.90;;;;;;4984876;28;20039;-66
2021/09/21 05:22:54;;;;;;;7.03;5.53;;;10.90;99.90;;;;;;4984956;28;20045;-66
2021/09/21 05:25:20;;;;;;;11.68;5.85;;;10.90;99.90;;;;;;4985614;28;20057;-66
2021/09/21 05:27:47;;;;;;;10.65;5.65;;;10.90;99.90;;;;;;4984640;28;20146;-66
2021/09/21 05:30:13;;;;;;;13.00;5.28;;;10.90;99.90;;;;;;4986076;28;20057;-66
2021/09/21 05:32:39;;;;;;;9.77;5.40;;;10.80;99.90;;;;;;4984755;28;20045;-66
2021/09/21 05:35:06;;;;;;;6.65;5.35;;;10.80;99.90;;;;;;4986258;28;20046;-66
2021/09/21 05:37:32;;;;;;;20.63;6.05;;;10.80;99.90;;;;;;4984958;28;20058;-66
2021/09/21 05:39:58;;;;;;;13.73;6.05;;;10.80;99.90;;;;;;4981241;28;20038;-66
2021/09/21 05:42:25;;;;;;;12.05;6.22;;;10.80;99.90;;;;;;4984384;28;20051;-66
2021/09/21 05:44:51;;;;;;;21.25;6.43;;;10.80;99.90;;;;;;4983351;28;20528;-66
2021/09/21 05:47:17;;;;;;;14.23;6.97;;;10.70;99.90;;;;;;4983309;28;20065;-66
2021/09/21 05:49:42;;;;;;;9.10;5.47;;;10.70;99.90;;;;;;4982373;28;20035;-66
2021/09/21 05:52:08;;;;;;;7.13;6.05;;;10.60;99.90;;;;;;4984291;28;20706;-66
2021/09/21 05:54:34;;;;;;;13.98;5.72;;;10.70;99.90;;;;;;4983296;28;20087;-66
2021/09/21 05:56:59;;;;;;;6.93;6.30;;;10.80;99.90;;;;;;4982211;28;20523;-66
2021/09/21 05:59:25;;;;;;;8.90;6.45;;;10.80;99.90;;;;;;4981918;28;20046;-66
2021/09/21 06:01:51;;;;;;;6.82;5.80;;;10.80;99.90;;;;;;4983132;28;20049;-66
2021/09/21 06:04:17;;;;;;;11.82;6.30;;;10.80;99.90;;;;;;4999602;28;20436;-66
2021/09/21 06:06:42;;;;;;;6.72;5.65;;;10.80;99.90;;;;;;4985586;28;20034;-66
2021/09/21 06:09:08;;;;;;;19.02;5.70;;;10.90;99.90;;;;;;4984631;28;20074;-66
2021/09/21 06:11:34;;;;;;;17.77;6.70;;;11.00;99.90;;;;;;4980006;28;20393;-66
2021/09/21 06:14:04;;;;;;;10.65;5.53;;;11.00;99.90;;;;;;4982705;28;20046;-66
2021/09/21 06:16:31;;;;;;;15.50;5.57;;;11.30;99.90;;;;;;4982129;28;20070;-67
2021/09/21 06:18:57;;;;;;;13.98;5.65;;;11.50;99.90;;;;;;4982145;28;20050;-66
2021/09/21 06:21:24;;;;;;;9.45;6.05;;;11.60;99.90;;;;;;4981084;28;20125;-66
2021/09/21 06:23:52;;;;;;;13.48;5.82;;;11.70;99.90;;;;;;4983039;28;20046;-66
2021/09/21 06:26:18;;;;;;;8.25;5.55;;;11.90;99.90;;;;;;4983668;28;20428;-66
2021/09/21 06:28:44;;;;;;;5.85;5.07;;;12.10;99.90;;;;;;4983255;28;20042;-66
2021/09/21 06:31:10;;;;;;;6.57;5.90;;;12.20;99.90;;;;;;4982450;28;20042;-66
2021/09/21 06:33:37;;;;;;;19.38;6.22;;;12.30;99.90;;;;;;4981862;28;20575;-66
2021/09/21 06:36:03;;;;;;;7.80;5.38;;;12.40;99.90;;;;;;4981954;28;20046;-66
2021/09/21 06:38:29;;;;;;;8.90;5.50;;;12.40;99.90;;;;;;4984107;28;20125;-66
2021/09/21 06:40:55;;;;;;;6.93;5.75;;;12.50;99.90;;;;;;4982065;28;20057;-66
2021/09/21 06:43:21;;;;;;;11.98;6.20;;;12.50;99.90;;;;;;4983695;28;20034;-66
2021/09/21 06:45:46;;;;;;;7.00;5.45;;;12.50;99.90;;;;;;4980406;28;20499;-66
2021/09/21 06:48:12;;;;;;;9.05;5.10;;;12.50;99.90;;;;;;4981755;28;20046;-66
2021/09/21 06:50:38;;;;;;;21.73;6.85;;;12.50;99.90;;;;;;4982985;28;20065;-66
2021/09/21 06:53:04;;;;;;;6.38;5.78;;;12.50;99.90;;;;;;4982283;28;20125;-66
2021/09/21 06:55:30;;;;;;;6.78;6.05;;;12.50;99.90;;;;;;4964901;28;20046;-66
2021/09/21 06:57:56;;;;;;;7.45;6.07;;;12.50;99.90;;;;;;4965557;28;20050;-66
2021/09/21 07:00:22;;;;;;;9.27;5.32;;;12.50;99.90;;;;;;4980048;28;20054;-66
2021/09/21 07:02:53;;;;;;;10.20;5.68;;;12.60;99.90;;;;;;4981450;28;20034;-66
2021/09/21 07:05:21;;;;;;;10.48;6.85;;;12.70;99.90;;;;;;4982583;28;20036;-66
2021/09/21 07:07:49;;;;;;;7.00;5.78;;;12.70;99.90;;;;;;4979511;28;20038;-66
2021/09/21 07:10:16;;;;;;;5.90;5.32;;;12.70;99.90;;;;;;4980928;28;20097;-66
2021/09/21 07:12:43;;;;;;;7.45;5.68;;;12.70;99.90;;;;;;4980326;28;20050;-66
2021/09/21 07:15:10;;;;;;;6.50;5.90;;;12.80;99.90;;;;;;4980759;28;20046;-66
2021/09/21 07:17:35;;;;;;;9.95;7.28;;;12.90;99.90;;;;;;4979859;28;20137;-67
2021/09/21 07:20:02;;;;;;;12.70;5.45;;;13.00;99.90;;;;;;4982300;28;22245;-67
2021/09/21 07:22:29;;;;;;;8.23;5.60;;;13.10;99.90;;;;;;4980670;28;20970;-67
2021/09/21 07:24:55;;;;;;;12.00;6.72;;;13.20;99.90;;;;;;4983163;28;20049;-67
2021/09/21 07:27:21;;;;;;;9.80;5.75;;;13.20;99.90;;;;;;4981242;28;20042;-67
2021/09/21 07:29:46;;;;;;;7.72;5.60;;;13.30;99.90;;;;;;4983536;28;20042;-67
2021/09/21 07:32:12;;;;;;;7.03;5.40;;;13.40;99.90;;;;;;4984565;28;20042;-67
2021/09/21 07:34:38;;;;;;;6.95;5.55;;;13.40;99.90;;;;;;4980374;28;20444;-67
2021/09/21 07:37:03;;;;;;;8.90;5.13;;;13.50;99.90;;;;;;4981562;28;20038;-67
2021/09/21 07:39:29;;;;;;;13.13;6.28;;;13.60;99.90;;;;;;4983849;28;20045;-67
2021/09/21 07:41:55;;;;;;;8.05;5.57;;;13.70;99.90;;;;;;4984037;28;20496;-67
2021/09/21 07:44:21;;;;;;;6.38;5.43;;;13.80;99.90;;;;;;4983574;28;20125;-67
2021/09/21 07:46:47;;;;;;;7.13;5.20;;;13.90;99.90;;;;;;4983321;28;20496;-67
2021/09/21 07:49:13;;;;;;;8.02;6.55;;;14.00;99.90;;;;;;4981966;28;20042;-67
2021/09/21 07:51:39;;;;;;;6.55;5.10;;;14.00;99.90;;;;;;4981451;28;20089;-67
2021/09/21 07:54:07;;;;;;;7.10;5.38;;;14.10;99.90;;;;;;4982956;28;20038;-67
2021/09/21 07:56:33;;;;;;;6.93;5.30;;;14.10;99.90;;;;;;4983910;28;20056;-67
2021/09/21 07:58:59;;;;;;;8.60;5.28;;;14.20;99.90;;;;;;4985315;28;20027;-67
2021/09/21 08:01:24;;;;;;;8.68;5.28;;;14.20;99.90;;;;;;4984078;28;20100;-67
2021/09/21 08:03:50;;;;;;;9.77;5.50;;;14.30;99.90;;;;;;4982410;28;20038;-67
2021/09/21 08:06:17;;;;;;;6.80;5.13;;;14.30;99.90;;;;;;4984572;28;20042;-67
2021/09/21 08:08:43;;;;;;;6.40;4.93;;;14.40;99.90;;;;;;4981803;28;20094;-67
2021/09/21 08:11:10;;;;;;;14.40;5.10;;;14.40;99.90;;;;;;4982925;28;20053;-67
2021/09/21 08:13:36;;;;;;;5.45;4.90;;;14.50;99.90;;;;;;4981789;28;20128;-67
2021/09/21 08:16:02;;;;;;;7.18;4.93;;;14.50;99.90;;;;;;4980898;28;20062;-67
2021/09/21 08:18:28;;;;;;;7.95;4.80;;;14.60;99.90;;;;;;4983073;28;20116;-67
2021/09/21 08:20:53;;;;;;;7.88;4.43;;;14.70;99.90;;;;;;4983519;28;20484;-67
2021/09/21 08:23:19;;;;;;;8.50;4.28;;;14.80;99.90;;;;;;4982730;28;20061;-67
2021/09/21 08:25:45;;;;;;;5.93;5.10;;;14.80;99.90;;;;;;4981144;28;20097;-66
2021/09/21 08:28:11;;;;;;;6.40;5.07;;;14.90;99.90;;;;;;4986474;28;20034;-66
2021/09/21 08:30:36;;;;;;;9.55;5.10;;;15.00;99.90;;;;;;4985835;28;20076;-67
2021/09/21 08:33:03;;;;;;;9.25;5.07;;;15.10;99.90;;;;;;4986061;28;20066;-67
2021/09/21 08:35:29;;;;;;;5.60;4.38;;;15.10;99.90;;;;;;4985970;28;20507;-67
2021/09/21 08:37:55;;;;;;;5.25;4.32;;;15.20;99.90;;;;;;4985460;28;20052;-67
2021/09/21 08:40:21;;;;;;;6.90;4.22;;;15.30;99.90;;;;;;4987461;28;20085;-67
2021/09/21 08:42:47;;;;;;;6.45;4.88;;;15.30;99.90;;;;;;4986261;28;20042;-67
2021/09/21 08:45:13;;;;;;;4.85;3.72;;;15.40;99.90;;;;;;4987394;28;20902;-67
2021/09/21 08:47:40;;;;;;;4.82;4.35;;;15.50;99.90;;;;;;4986848;28;20046;-67
2021/09/21 08:50:08;;;;;;;7.70;4.63;;;15.60;99.90;;;;;;4987478;28;20034;-67
2021/09/21 08:52:36;;;;;;;7.53;4.38;;;15.70;99.90;;;;;;4986102;28;20064;-67
2021/09/21 08:55:02;;;;;;;7.55;5.00;;;15.80;99.90;;;;;;4988132;28;20035;-67
2021/09/21 08:57:29;;;;;;;7.18;4.28;;;15.90;99.90;;;;;;4986242;28;20050;-67
2021/09/21 08:59:56;;;;;;;6.93;4.45;;;15.90;99.90;;;;;;4986165;28;20081;-67
2021/09/21 09:02:23;;;;;;;4.93;3.80;;;16.00;99.90;;;;;;4986161;28;20053;-67
2021/09/21 09:05:04;;;;;;;5.13;4.53;;;16.10;99.90;;;;;;4985742;28;20046;-67
2021/09/21 09:07:56;;;;;;;6.35;4.72;;;16.20;99.90;;;;;;4986440;28;20133;-67
2021/09/21 09:10:23;;;;;;;7.22;4.32;;;16.30;99.90;;;;;;4986257;28;20081;-67
2021/09/21 09:12:50;;;;;;;4.60;3.50;;;16.50;99.90;;;;;;4985045;28;20069;-67
2021/09/21 09:15:18;;;;;;;5.53;3.83;;;16.60;99.90;;;;;;4987769;28;20049;-67
2021/09/21 09:18:05;;;;;;;5.28;3.45;;;16.70;99.90;;;;;;4986139;28;20042;-67
2021/09/21 09:20:33;;;;;;;5.22;3.97;;;16.80;99.90;;;;;;4987799;28;20492;-67
2021/09/21 09:22:59;;;;;;;12.55;3.85;;;16.80;99.90;;;;;;4987060;28;20065;-67
2021/09/21 09:25:26;;;;;;;5.97;3.67;;;17.00;99.90;;;;;;4986740;28;20077;-67
2021/09/21 09:27:52;;;;;;;6.57;3.15;;;17.00;99.90;;;;;;4984625;28;20493;-67
2021/09/21 09:30:24;;;;;;;6.80;3.67;;;17.10;99.90;;;;;;4985956;28;20050;-67
2021/09/21 09:32:56;;;;;;;4.10;3.28;;;17.10;99.90;;;;;;4986369;28;20711;-67
2021/09/21 09:35:27;;;;;;;3.50;2.97;;;17.20;99.90;;;;;;4984657;28;20053;-67
2021/09/21 09:37:54;;;;;;;6.82;3.50;;;17.40;99.90;;;;;;4984994;28;20069;-67
2021/09/21 09:40:20;;;;;;;5.45;3.40;;;17.50;99.90;;;;;;4985278;28;20042;-67
2021/09/21 09:42:49;;;;;;;3.97;3.58;;;17.60;99.90;;;;;;4984076;28;20046;-67
2021/09/21 09:45:29;;;;;;;4.28;3.25;;;17.70;99.90;;;;;;4984828;28;20485;-67
2021/09/21 09:47:56;;;;;;;8.15;3.33;;;17.80;99.90;;;;;;4984199;28;20074;-67
2021/09/21 09:50:27;;;;;;;5.85;3.10;;;17.80;99.90;;;;;;4983826;28;20050;-67
2021/09/21 09:53:28;;;;;;;5.55;3.17;;;18.00;99.90;;;;;;4985229;28;20981;-67
2021/09/21 09:55:56;;;;;;;6.72;3.33;;;18.10;99.90;;;;;;4985004;28;20084;-67
2021/09/21 09:58:23;;;;;;;4.68;2.97;;;18.10;99.90;;;;;;4985753;28;20788;-67
2021/09/21 10:00:49;;;;;;;6.95;3.92;;;18.20;99.90;;;;;;4983741;28;20049;-67
2021/09/21 10:03:15;;;;;;;8.80;3.58;;;18.30;99.90;;;;;;4984379;28;20104;-67
2021/09/21 10:05:42;;;;;;;6.38;3.28;;;18.30;99.90;;;;;;4984095;28;20053;-67
2021/09/21 10:08:09;;;;;;;6.10;3.83;;;18.40;99.90;;;;;;4984965;28;20060;-67
2021/09/21 10:10:38;;;;;;;6.13;3.25;;;18.30;99.90;;;;;;4985132;28;20148;-67
2021/09/21 10:13:11;;;;;;;15.00;3.67;;;18.30;99.90;;;;;;4984937;28;20054;-67
2021/09/21 10:15:39;;;;;;;8.38;3.20;;;18.30;99.90;;;;;;4983872;28;20046;-67
2021/09/21 10:18:05;;;;;;;14.00;4.35;;;18.30;99.90;;;;;;4982319;28;20053;-67
2021/09/21 10:20:36;;;;;;;6.22;4.50;;;18.30;99.90;;;;;;4984371;28;20038;-67
2021/09/21 10:23:05;;;;;;;6.38;3.13;;;18.20;99.90;;;;;;4986769;28;20026;-67
2021/09/21 10:25:40;;;;;;;5.45;3.40;;;18.30;99.90;;;;;;4985212;28;20034;-67
2021/09/21 10:28:12;;;;;;;7.80;3.28;;;18.30;99.90;;;;;;4984176;28;20503;-67
2021/09/21 10:30:38;;;;;;;5.20;3.72;;;18.40;99.90;;;;;;4982877;28;20046;-67
2021/09/21 10:33:04;;;;;;;6.75;3.03;;;18.40;99.90;;;;;;4983965;28;20038;-67
2021/09/21 10:35:31;;;;;;;6.13;3.05;;;18.40;99.90;;;;;;4981533;28;20129;-67
2021/09/21 10:38:07;;;;;;;4.28;3.13;;;18.50;99.90;;;;;;4984050;28;20497;-67
2021/09/21 10:40:41;;;;;;;5.55;3.78;;;18.50;99.90;;;;;;4984156;28;20469;-67
2021/09/21 10:43:19;;;;;;;7.25;4.20;;;18.60;99.90;;;;;;4983619;28;20052;-67
2021/09/21 10:45:45;;;;;;;5.50;3.50;;;18.60;99.90;;;;;;4981544;28;20412;-67
2021/09/21 10:48:17;;;;;;;27.15;4.97;;;18.70;99.90;;;;;;4964656;28;20046;-67
2021/09/21 10:50:43;;;;;;;11.57;4.32;;;18.70;99.90;;;;;;4983457;28;20038;-67
2021/09/21 10:53:09;;;;;;;5.78;3.88;;;18.70;99.90;;;;;;4983212;28;20108;-67
2021/09/21 10:55:37;;;;;;;20.40;4.78;;;18.80;99.90;;;;;;4982597;28;20058;-67
2021/09/21 10:58:04;;;;;;;9.65;4.05;;;18.90;99.90;;;;;;4982622;28;20046;-67
2021/09/21 11:00:34;;;;;;;9.23;4.43;;;19.00;99.90;;;;;;4984964;28;20038;-67
2021/09/21 11:03:00;;;;;;;11.07;4.43;;;19.00;99.90;;;;;;4983218;28;20081;-67
2021/09/21 11:05:26;;;;;;;10.18;4.95;;;19.00;99.90;;;;;;4984656;28;20042;-67
2021/09/21 11:07:52;;;;;;;7.85;5.15;;;19.10;99.90;;;;;;4983175;28;20057;-67
2021/09/21 11:10:19;;;;;;;6.35;5.15;;;19.10;99.90;;;;;;4984671;28;20030;-67
2021/09/21 11:12:49;;;;;;;6.57;5.00;;;19.20;99.90;;;;;;4983409;28;20030;-67
2021/09/21 11:15:16;;;;;;;7.00;5.13;;;19.20;99.90;;;;;;4983844;28;20042;-67
2021/09/21 11:17:42;;;;;;;8.35;5.63;;;19.20;99.90;;;;;;4997999;28;20054;-67
2021/09/21 11:20:08;;;;;;;12.60;5.90;;;19.30;99.90;;;;;;4983782;28;20042;-67
2021/09/21 11:22:36;;;;;;;9.88;6.13;;;19.40;99.90;;;;;;4984379;28;20042;-67
2021/09/21 11:25:11;;;;;;;13.50;5.47;;;19.40;99.90;;;;;;4984012;28;20100;-67
2021/09/21 11:27:39;;;;;;;8.65;5.50;;;19.40;99.90;;;;;;4983992;28;20112;-67
2021/09/21 11:30:13;;;;;;;12.77;5.85;;;19.40;99.90;;;;;;4966572;28;20141;-67
2021/09/21 11:32:43;;;;;;;10.32;5.13;;;19.40;99.90;;;;;;4983205;28;20134;-67
2021/09/21 11:35:14;;;;;;;8.80;5.90;;;19.40;99.90;;;;;;4981732;28;20041;-67
2021/09/21 11:37:46;;;;;;;12.52;5.38;;;19.40;99.90;;;;;;4982327;28;20088;-67
2021/09/21 11:40:32;;;;;;;6.85;5.18;;;19.30;99.90;;;;;;4982817;28;20489;-67
2021/09/21 11:42:59;;;;;;;13.40;5.22;;;19.30;99.90;;;;;;4982917;28;20103;-67
2021/09/21 11:45:26;;;;;;;10.98;4.63;;;19.20;99.90;;;;;;4984349;28;20046;-67
2021/09/21 11:47:52;;;;;;;9.20;4.57;;;19.20;99.90;;;;;;4980280;28;20057;-67
2021/09/21 11:50:24;;;;;;;16.83;5.07;;;19.20;99.90;;;;;;4981603;28;20444;-67
2021/09/21 11:52:59;;;;;;;7.22;4.50;;;19.20;99.90;;;;;;4980704;28;20061;-67
2021/09/21 11:55:29;;;;;;;8.30;4.95;;;19.00;99.90;;;;;;4983664;28;20042;-67
2021/09/21 11:57:55;;;;;;;7.15;5.25;;;19.00;99.90;;;;;;4982110;28;20038;-67
2021/09/21 12:00:26;;;;;;;6.30;4.63;;;18.90;99.90;;;;;;4980615;28;20161;-67
2021/09/21 12:03:17;;;;;;;10.30;3.97;;;19.00;99.90;;;;;;4983231;28;20567;-67
2021/09/21 12:05:45;;;;;;;5.93;3.85;;;18.90;99.90;;;;;;4981939;28;20058;-67
2021/09/21 12:08:30;;;;;;;5.50;3.28;;;18.90;99.90;;;;;;4983091;28;20129;-67
2021/09/21 12:11:09;;;;;;;12.00;3.17;;;18.80;99.90;;;;;;4981072;28;20053;-66
2021/09/21 12:13:35;;;;;;;4.93;3.08;;;18.70;99.90;;;;;;4983751;28;20080;-67
2021/09/21 12:16:07;;;;;;;13.05;3.60;;;18.70;99.90;;;;;;4983499;28;20571;-67
2021/09/21 12:18:34;;;;;;;4.88;2.72;;;18.60;99.90;;;;;;4981806;28;21571;-67
2021/09/21 12:21:09;;;;;;;3.13;2.53;;;18.60;99.90;;;;;;4982265;28;20433;-67
2021/09/21 12:23:37;;;;;;;5.63;2.50;;;18.50;99.90;;;;;;4981238;28;20501;-67
2021/09/21 12:26:04;;;;;;;6.60;3.00;;;18.50;99.90;;;;;;4983640;28;20050;-67
2021/09/21 12:28:42;;;;;;;3.75;2.85;;;18.60;99.90;;;;;;4983912;28;20888;-67
2021/09/21 12:31:35;;;;;;;6.75;2.63;;;18.50;99.90;;;;;;4983325;28;20054;-67
2021/09/21 12:34:11;;;;;;;5.72;2.50;;;18.60;99.90;;;;;;4997782;28;20504;-67
2021/09/21 12:36:48;;;;;;;3.72;3.20;;;18.50;99.90;;;;;;4962175;28;20101;-67
2021/09/21 12:39:16;;;;;;;4.65;2.60;;;18.50;99.90;;;;;;4983115;28;20049;-67
2021/09/21 12:41:45;;;;;;;4.32;2.88;;;18.40;99.90;;;;;;4980578;28;20112;-67
2021/09/21 12:44:13;;;;;;;7.80;2.80;;;18.40;99.90;;;;;;4983205;28;20050;-67
2021/09/21 12:46:44;;;;;;;5.40;2.92;;;18.40;99.90;;;;;;4983436;28;20069;-67
2021/09/21 12:49:12;;;;;;;7.40;3.20;;;18.40;99.90;;;;;;4983233;28;20042;-67
2021/09/21 12:51:42;;;;;;;3.17;2.83;;;18.40;99.90;;;;;;4982126;28;20089;-67
2021/09/21 12:54:13;;;;;;;5.20;2.45;;;18.40;99.90;;;;;;4965507;28;20057;-67
2021/09/21 12:56:42;;;;;;;10.90;3.50;;;18.40;99.90;;;;;;4981382;28;20042;-67
2021/09/21 12:59:12;;;;;;;5.00;3.10;;;18.40;99.90;;;;;;4982485;28;20041;-67